Time;durP1;ratioP1;P1;durP2;ratioP2;P2;SDS_P1;SDS_P2;PMS_P1;PMS_P2;Temp;Humidity;BMP_temperature;BMP_pressure;BME280_temperature;BME280_humidity;BME280_pressure;Samples;Min_cycle;Max_cycle;Signal;HPM_P1;HPM_P2
2021/01/10 00:00:42;;;;;;;0.00;0.00;;;1.00;86.40;;;;;;5015914;28;20440;-89
2021/01/10 00:03:08;;;;;;;1.23;0.33;;;0.90;86.30;;;;;;5018869;28;20033;-90
2021/01/10 00:05:36;;;;;;;0.70;0.13;;;0.90;86.40;;;;;;5019200;28;20032;-93
2021/01/10 00:08:02;;;;;;;0.00;0.00;;;0.90;86.40;;;;;;5015782;28;20041;-89
2021/01/10 00:10:29;;;;;;;0.00;0.00;;;0.90;86.40;;;;;;5015153;28;20041;-90
2021/01/10 00:13:03;;;;;;;0.83;0.30;;;0.90;86.40;;;;;;5021890;28;20037;-89
2021/01/10 00:15:31;;;;;;;0.20;0.10;;;0.90;86.40;;;;;;5021443;28;20025;-89
2021/01/10 00:17:57;;;;;;;0.00;0.00;;;0.90;86.40;;;;;;5016903;28;20339;-90
2021/01/10 00:20:23;;;;;;;0.33;0.20;;;0.90;86.50;;;;;;5016138;28;20817;-90
2021/01/10 00:22:51;;;;;;;0.37;0.00;;;0.90;86.40;;;;;;5036048;28;20233;-90
2021/01/10 00:25:17;;;;;;;0.93;0.47;;;0.90;86.50;;;;;;5002485;28;20420;-90
2021/01/10 00:27:43;;;;;;;0.53;0.33;;;0.90;86.50;;;;;;5022280;28;20040;-90
2021/01/10 00:30:12;;;;;;;0.10;0.00;;;0.80;86.40;;;;;;5021282;28;20040;-90
2021/01/10 00:32:38;;;;;;;0.00;0.00;;;0.80;86.50;;;;;;5007271;28;20037;-90
2021/01/10 00:35:06;;;;;;;5.33;0.40;;;0.80;86.60;;;;;;5020290;28;20025;-89
2021/01/10 00:37:32;;;;;;;2.53;0.10;;;0.80;86.60;;;;;;5001699;28;20048;-89
2021/01/10 00:39:58;;;;;;;0.00;0.00;;;0.80;86.50;;;;;;5018583;28;20454;-91
2021/01/10 00:42:25;;;;;;;0.50;0.30;;;0.80;87.30;;;;;;5022346;28;20037;-91
2021/01/10 00:44:51;;;;;;;0.00;0.00;;;0.80;86.40;;;;;;5020762;28;20028;-89
2021/01/10 00:47:18;;;;;;;0.87;0.67;;;0.80;86.40;;;;;;5003038;28;20025;-90
2021/01/10 00:49:45;;;;;;;0.13;0.13;;;0.80;86.40;;;;;;5022101;28;20029;-91
2021/01/10 00:52:12;;;;;;;0.20;0.20;;;0.80;86.30;;;;;;5019220;28;20017;-89
2021/01/10 00:54:38;;;;;;;0.10;0.10;;;0.90;86.40;;;;;;5009763;28;20045;-91
2021/01/10 00:57:05;;;;;;;0.73;0.40;;;0.80;86.30;;;;;;5003036;28;20164;-90
2021/01/10 00:59:32;;;;;;;0.07;0.07;;;0.80;86.30;;;;;;5019285;28;20033;-91
2021/01/10 01:01:58;;;;;;;0.00;0.00;;;0.80;86.30;;;;;;5016093;28;20021;-91
2021/01/10 01:04:24;;;;;;;0.00;0.00;;;0.80;86.40;;;;;;5017848;28;20339;-91
2021/01/10 01:06:51;;;;;;;0.27;0.23;;;0.80;86.50;;;;;;5017745;28;20040;-90
2021/01/10 01:09:17;;;;;;;0.00;0.00;;;0.80;86.50;;;;;;4999101;28;20048;-90
2021/01/10 01:11:43;;;;;;;0.00;0.00;;;0.80;86.50;;;;;;5005101;28;20147;-89
2021/01/10 01:14:11;;;;;;;1.27;0.93;;;0.80;86.50;;;;;;5005924;28;20178;-91
2021/01/10 01:16:43;;;;;;;0.30;0.30;;;0.80;86.50;;;;;;5021682;28;20032;-92
2021/01/10 01:19:10;;;;;;;1.00;0.23;;;0.80;86.50;;;;;;5007189;28;20455;-91
2021/01/10 01:21:36;;;;;;;0.00;0.00;;;0.70;86.50;;;;;;5005472;28;20052;-92
2021/01/10 01:24:03;;;;;;;0.20;0.13;;;0.70;86.50;;;;;;5022656;28;20021;-91
2021/01/10 01:26:29;;;;;;;0.87;0.10;;;0.70;86.50;;;;;;5035659;28;20037;-90
2021/01/10 01:28:56;;;;;;;0.10;0.10;;;0.70;86.50;;;;;;5021866;28;20033;-90
2021/01/10 01:31:24;;;;;;;0.10;0.10;;;0.70;86.40;;;;;;5020976;28;20029;-92
2021/01/10 01:33:51;;;;;;;0.00;0.00;;;0.80;86.50;;;;;;5022471;28;20040;-89
2021/01/10 01:36:24;;;;;;;0.40;0.40;;;0.80;86.40;;;;;;5038743;28;20025;-90
2021/01/10 01:38:55;;;;;;;0.00;0.00;;;0.80;86.40;;;;;;5005985;28;20037;-90
2021/01/10 01:41:21;;;;;;;0.00;0.00;;;0.80;86.30;;;;;;5022281;28;20040;-90
2021/01/10 01:43:48;;;;;;;1.00;0.40;;;0.80;86.30;;;;;;5004013;28;20040;-91
2021/01/10 01:46:22;;;;;;;0.10;0.10;;;0.80;86.30;;;;;;5019351;28;20336;-90
2021/01/10 01:48:48;;;;;;;1.03;0.33;;;0.80;86.20;;;;;;5035335;28;20332;-91
2021/01/10 01:51:14;;;;;;;0.20;0.00;;;0.80;86.20;;;;;;5022315;28;20021;-91
2021/01/10 01:53:41;;;;;;;0.00;0.00;;;0.80;86.20;;;;;;5020379;28;20033;-90
2021/01/10 01:56:08;;;;;;;3.03;1.00;;;0.80;86.20;;;;;;5011291;28;20462;-91
2021/01/10 01:58:57;;;;;;;0.00;0.00;;;0.80;86.20;;;;;;5013986;28;20435;-90
2021/01/10 02:01:24;;;;;;;0.00;0.00;;;0.70;86.20;;;;;;5040879;28;20047;-90
2021/01/10 02:03:50;;;;;;;0.50;0.37;;;0.80;86.30;;;;;;5014015;28;20048;-91
2021/01/10 02:06:22;;;;;;;0.80;0.67;;;0.80;86.20;;;;;;5028846;28;20052;-91
2021/01/10 02:08:50;;;;;;;0.10;0.10;;;0.80;86.20;;;;;;5040839;28;20426;-90
2021/01/10 02:11:17;;;;;;;0.10;0.10;;;0.70;86.10;;;;;;5022702;28;20028;-89
2021/01/10 02:13:43;;;;;;;0.00;0.00;;;0.70;86.20;;;;;;5040818;28;20434;-91
2021/01/10 02:16:10;;;;;;;2.53;0.77;;;0.70;86.30;;;;;;5057284;28;20342;-92
2021/01/10 02:18:36;;;;;;;2.80;0.67;;;0.70;86.30;;;;;;5025040;28;20032;-93
2021/01/10 02:21:07;;;;;;;0.50;0.17;;;0.70;86.30;;;;;;5025166;28;20028;-92
2021/01/10 02:23:34;;;;;;;1.98;0.38;;;0.70;86.40;;;;;;5038788;28;20407;-92
2021/01/10 02:26:01;;;;;;;0.57;0.17;;;0.70;86.40;;;;;;5025452;28;20035;-91
2021/01/10 02:28:28;;;;;;;0.97;0.40;;;0.70;86.50;;;;;;5019570;28;20039;-92
2021/01/10 02:30:56;;;;;;;1.93;1.10;;;0.70;86.50;;;;;;5023725;28;20021;-92
2021/01/10 02:33:46;;;;;;;0.40;0.20;;;0.70;86.50;;;;;;5039869;28;20021;-92
2021/01/10 02:36:39;;;;;;;0.00;0.00;;;0.60;86.50;;;;;;5029834;28;20028;-90
2021/01/10 02:39:09;;;;;;;0.00;0.00;;;0.60;86.50;;;;;;5023355;28;20040;-91
2021/01/10 02:41:55;;;;;;;0.00;0.00;;;0.60;86.50;;;;;;5039925;28;20044;-90
2021/01/10 02:44:35;;;;;;;2.80;0.37;;;0.60;86.50;;;;;;5057516;28;20035;-91
2021/01/10 02:47:02;;;;;;;0.52;0.22;;;0.60;86.50;;;;;;5025136;28;20024;-91
2021/01/10 02:49:28;;;;;;;0.10;0.10;;;0.50;86.50;;;;;;5024500;28;20037;-90
2021/01/10 02:51:54;;;;;;;0.97;0.63;;;0.60;86.50;;;;;;5024085;28;20036;-93
2021/01/10 02:54:21;;;;;;;2.40;1.10;;;0.50;86.50;;;;;;5057067;28;20033;-93
2021/01/10 02:56:57;;;;;;;0.00;0.00;;;0.50;86.50;;;;;;5035302;28;20041;-93
2021/01/10 02:59:25;;;;;;;0.70;0.27;;;0.50;86.50;;;;;;5038328;28;20029;-93
2021/01/10 03:02:53;;;;;;;;;;;;;;;;;;;;;
2021/01/10 03:05:20;;;;;;;0.10;0.07;;;0.50;86.70;;;;;;5034540;28;20060;-93
2021/01/10 03:07:46;;;;;;;0.00;0.00;;;0.40;86.70;;;;;;5019078;28;20037;-90
2021/01/10 03:10:13;;;;;;;0.67;0.60;;;0.40;86.80;;;;;;5036376;28;20187;-91
2021/01/10 03:12:40;;;;;;;2.73;0.93;;;0.40;87.20;;;;;;5016303;28;20037;-92
2021/01/10 03:15:07;;;;;;;0.00;0.00;;;0.40;86.80;;;;;;5016432;28;20355;-91
2021/01/10 03:17:49;;;;;;;0.00;0.00;;;0.30;86.90;;;;;;5019589;28;20045;-92
2021/01/10 03:20:19;;;;;;;0.03;0.00;;;0.30;86.90;;;;;;5036082;28;20266;-92
2021/01/10 03:22:46;;;;;;;0.07;0.07;;;0.30;86.90;;;;;;5042853;28;20033;-91
2021/01/10 03:25:15;;;;;;;0.47;0.20;;;0.30;86.90;;;;;;5046165;28;20276;-90
2021/01/10 03:27:41;;;;;;;0.27;0.20;;;0.30;86.90;;;;;;5029286;28;20331;-92
2021/01/10 03:30:09;;;;;;;0.30;0.10;;;0.30;86.90;;;;;;5032950;28;20063;-92
2021/01/10 03:32:36;;;;;;;0.00;0.00;;;0.30;86.90;;;;;;5034813;28;20116;-92
2021/01/10 03:35:06;;;;;;;0.00;0.00;;;0.30;86.90;;;;;;5038779;28;20149;-92
2021/01/10 03:37:33;;;;;;;0.00;0.00;;;0.30;86.90;;;;;;5045485;28;20168;-92
2021/01/10 03:40:00;;;;;;;0.00;0.00;;;0.30;86.90;;;;;;5039206;28;20323;-92
2021/01/10 03:42:26;;;;;;;0.00;0.00;;;0.30;86.80;;;;;;5038447;28;20029;-93
2021/01/10 03:44:52;;;;;;;0.33;0.20;;;0.30;86.80;;;;;;5004515;28;20434;-92
2021/01/10 03:47:19;;;;;;;0.00;0.00;;;0.30;86.70;;;;;;5036066;28;20036;-91
2021/01/10 03:49:45;;;;;;;0.00;0.00;;;0.40;86.70;;;;;;5018000;28;20033;-92
2021/01/10 03:55:13;;;;;;;0.55;0.55;;;0.40;86.70;;;;;;5007246;28;20033;-92
2021/01/10 03:57:39;;;;;;;0.00;0.00;;;0.30;86.60;;;;;;5018605;28;20035;-92
2021/01/10 04:00:07;;;;;;;0.00;0.00;;;0.40;86.50;;;;;;5018654;28;20033;-91
2021/01/10 04:02:34;;;;;;;0.00;0.00;;;0.40;86.40;;;;;;5020244;28;20021;-92
2021/01/10 04:05:00;;;;;;;0.10;0.00;;;0.50;86.40;;;;;;5019158;28;20056;-92
2021/01/10 04:07:27;;;;;;;0.00;0.00;;;0.50;87.20;;;;;;5003393;28;20494;-92
2021/01/10 04:09:53;;;;;;;1.10;0.57;;;0.50;86.30;;;;;;5019358;28;20036;-90
2021/01/10 04:12:20;;;;;;;0.00;0.00;;;0.50;86.30;;;;;;5002971;28;20045;-90
2021/01/10 04:14:46;;;;;;;1.33;1.00;;;0.50;86.20;;;;;;5037016;28;20416;-93
2021/01/10 04:17:12;;;;;;;0.53;0.10;;;0.50;86.20;;;;;;5005482;28;20026;-92
2021/01/10 04:19:39;;;;;;;1.23;0.60;;;0.50;86.30;;;;;;5020364;28;20032;-90
2021/01/10 04:22:05;;;;;;;0.13;0.13;;;0.50;86.40;;;;;;5034088;28;20319;-91
2021/01/10 04:24:31;;;;;;;0.00;0.00;;;0.50;86.50;;;;;;5003046;28;20037;-92
2021/01/10 04:26:58;;;;;;;0.00;0.00;;;0.40;86.50;;;;;;5002890;28;20025;-93
2021/01/10 04:29:24;;;;;;;5.30;0.40;;;0.50;86.50;;;;;;5034728;28;20037;-91
2021/01/10 04:31:51;;;;;;;0.47;0.17;;;0.40;86.40;;;;;;5000953;28;20427;-92
2021/01/10 04:34:17;;;;;;;0.67;0.30;;;0.40;86.40;;;;;;5035600;28;20025;-92
2021/01/10 04:36:44;;;;;;;0.00;0.00;;;0.40;86.40;;;;;;5017256;28;20374;-92
2021/01/10 04:39:10;;;;;;;0.00;0.00;;;0.40;86.50;;;;;;5001328;28;20056;-92
2021/01/10 04:41:37;;;;;;;0.90;0.60;;;0.40;86.60;;;;;;5019293;28;20286;-93
2021/01/10 04:44:03;;;;;;;0.67;0.27;;;0.40;86.70;;;;;;4998118;28;20032;-92
2021/01/10 04:46:30;;;;;;;0.00;0.00;;;0.40;86.70;;;;;;5001811;28;20033;-91
2021/01/10 04:48:57;;;;;;;0.00;0.00;;;0.40;86.50;;;;;;5002797;28;20033;-91
2021/01/10 04:51:26;;;;;;;0.53;0.30;;;0.50;86.50;;;;;;5016462;28;20025;-91
2021/01/10 04:53:55;;;;;;;0.10;0.10;;;0.40;86.40;;;;;;5021602;28;20032;-91
2021/01/10 04:56:21;;;;;;;0.77;0.20;;;0.40;86.40;;;;;;5024162;28;20041;-93
2021/01/10 04:58:51;;;;;;;0.47;0.43;;;0.40;86.50;;;;;;5044812;28;20043;-91
2021/01/10 05:01:23;;;;;;;0.00;0.00;;;0.40;86.50;;;;;;5019222;28;20231;-92
2021/01/10 05:03:49;;;;;;;;;;;0.40;86.60;;;;;;5029537;28;20045;-91
2021/01/10 05:06:16;;;;;;;0.00;0.00;;;0.40;86.60;;;;;;5044395;28;19909;-89
2021/01/10 05:08:43;;;;;;;0.00;0.00;;;0.30;86.60;;;;;;5019298;28;20072;-89
2021/01/10 05:11:09;;;;;;;0.20;0.20;;;0.30;86.60;;;;;;5049530;28;20025;-92
2021/01/10 05:13:35;;;;;;;0.70;0.17;;;0.40;86.60;;;;;;5032449;28;20054;-91
2021/01/10 05:16:02;;;;;;;0.00;0.00;;;0.40;86.60;;;;;;5049657;28;20025;-92
2021/01/10 05:18:28;;;;;;;0.00;0.00;;;0.40;86.70;;;;;;5048696;28;20280;-92
2021/01/10 05:20:54;;;;;;;0.30;0.27;;;0.30;86.70;;;;;;5037757;28;20040;-91
2021/01/10 05:23:25;;;;;;;1.70;0.67;;;0.30;86.60;;;;;;5044324;28;20029;-89
2021/01/10 05:26:06;;;;;;;0.00;0.00;;;0.30;86.70;;;;;;5027189;28;20041;-89
2021/01/10 05:28:35;;;;;;;0.43;0.10;;;0.40;86.70;;;;;;5023140;28;20037;-90
2021/01/10 05:31:02;;;;;;;0.00;0.00;;;0.50;86.70;;;;;;5017701;28;20099;-90
2021/01/10 05:33:29;;;;;;;0.30;0.30;;;0.40;86.50;;;;;;5023084;28;20044;-90
2021/01/10 05:35:56;;;;;;;0.00;0.00;;;0.40;86.50;;;;;;5041177;28;20025;-91
2021/01/10 05:38:31;;;;;;;0.00;0.00;;;0.50;86.60;;;;;;5022691;28;20308;-91
2021/01/10 05:40:59;;;;;;;0.10;0.10;;;0.50;86.50;;;;;;5033851;28;20037;-91
2021/01/10 05:43:25;;;;;;;0.00;0.00;;;0.50;86.60;;;;;;5038734;28;20057;-90
2021/01/10 05:46:02;;;;;;;;;;;;;;;;;;;;;
2021/01/10 05:48:30;;;;;;;0.00;0.00;;;0.50;86.70;;;;;;5059005;28;20021;-91
2021/01/10 05:50:56;;;;;;;0.00;0.00;;;0.50;86.80;;;;;;5042797;28;20037;-90
2021/01/10 05:53:23;;;;;;;0.00;0.00;;;0.40;86.80;;;;;;5017445;28;20033;-92
2021/01/10 05:56:02;;;;;;;0.00;0.00;;;0.50;86.90;;;;;;5037086;28;20053;-89
2021/01/10 05:58:32;;;;;;;0.27;0.00;;;0.40;86.80;;;;;;5024053;28;20041;-90
2021/01/10 06:01:19;;;;;;;0.00;0.00;;;0.40;86.80;;;;;;5014709;28;20045;-91
2021/01/10 06:03:45;;;;;;;0.93;0.20;;;0.40;87.00;;;;;;5045584;28;20037;-91
2021/01/10 06:06:11;;;;;;;0.00;0.00;;;0.40;87.00;;;;;;5023199;28;20029;-89
2021/01/10 06:08:39;;;;;;;0.63;0.17;;;0.30;87.10;;;;;;5021313;28;20048;-91
2021/01/10 06:11:23;;;;;;;0.73;0.40;;;0.30;87.20;;;;;;5030906;28;20052;-89
2021/01/10 06:13:51;;;;;;;0.00;0.00;;;0.30;87.30;;;;;;5034704;28;20033;-91
2021/01/10 06:16:18;;;;;;;1.53;0.63;;;0.20;87.40;;;;;;5027323;28;20033;-89
2021/01/10 06:19:07;;;;;;;0.20;0.07;;;0.20;87.50;;;;;;5043114;28;20020;-89
2021/01/10 06:21:33;;;;;;;0.03;0.00;;;0.20;87.60;;;;;;5025720;28;20044;-89
2021/01/10 06:24:05;;;;;;;0.00;0.00;;;0.20;87.60;;;;;;5046614;28;20216;-89
2021/01/10 06:26:33;;;;;;;0.60;0.50;;;0.10;87.60;;;;;;5015961;28;20036;-88
2021/01/10 06:29:03;;;;;;;0.00;0.00;;;0.10;87.60;;;;;;5048729;28;20029;-89
2021/01/10 06:31:37;;;;;;;3.45;0.63;;;0.10;87.60;;;;;;5045147;28;20033;-87
2021/01/10 06:34:07;;;;;;;0.40;0.40;;;0.10;87.50;;;;;;5061585;28;20043;-87
2021/01/10 06:36:38;;;;;;;0.57;0.25;;;0.10;87.60;;;;;;5052239;28;20029;-89
2021/01/10 06:39:12;;;;;;;1.85;0.25;;;0.10;87.50;;;;;;5052045;28;20427;-88
2021/01/10 06:41:57;;;;;;;0.00;0.00;;;0.10;87.60;;;;;;5023338;28;20056;-89
2021/01/10 06:44:23;;;;;;;0.00;0.00;;;0.10;87.70;;;;;;5053652;28;20048;-89
2021/01/10 06:46:54;;;;;;;1.17;0.53;;;0.00;87.70;;;;;;5006151;28;20029;-91
2021/01/10 06:49:21;;;;;;;0.00;0.00;;;0.00;87.70;;;;;;5021642;28;20143;-89
2021/01/10 06:51:49;;;;;;;0.00;0.00;;;0.00;87.70;;;;;;5020656;28;20037;-88
2021/01/10 06:54:15;;;;;;;0.00;0.00;;;0.00;87.80;;;;;;5027136;28;20024;-89
2021/01/10 06:56:48;;;;;;;0.50;0.23;;;0.00;87.80;;;;;;5028578;28;20048;-89
2021/01/10 06:59:19;;;;;;;1.33;0.57;;;0.00;87.80;;;;;;5021864;28;20033;-89
2021/01/10 07:01:48;;;;;;;1.08;0.52;;;0.00;87.80;;;;;;5023170;28;20033;-91
2021/01/10 07:04:18;;;;;;;1.90;0.37;;;0.00;87.80;;;;;;5055736;28;20027;-88
2021/01/10 07:06:48;;;;;;;0.80;0.27;;;-0.10;87.70;;;;;;5036686;28;20025;-90
2021/01/10 07:09:15;;;;;;;0.23;0.23;;;0.00;87.80;;;;;;5038106;28;20293;-90
2021/01/10 07:11:42;;;;;;;0.00;0.00;;;-0.10;87.70;;;;;;5032848;28;20029;-90
2021/01/10 07:14:12;;;;;;;0.27;0.27;;;-0.10;87.80;;;;;;5021190;28;20036;-89
2021/01/10 07:16:39;;;;;;;0.00;0.00;;;-0.10;87.80;;;;;;5054933;28;20340;-88
2021/01/10 07:19:11;;;;;;;0.00;0.00;;;-0.10;87.90;;;;;;5026210;28;20028;-88
2021/01/10 07:21:37;;;;;;;0.00;0.00;;;-0.10;87.90;;;;;;5037563;28;20033;-87
2021/01/10 07:24:13;;;;;;;0.20;0.10;;;-0.10;87.90;;;;;;5039058;28;20037;-89
2021/01/10 07:26:41;;;;;;;0.47;0.23;;;-0.10;87.90;;;;;;5054358;28;20028;-88
2021/01/10 07:29:26;;;;;;;3.40;0.37;;;-0.10;87.90;;;;;;5021548;28;20040;-87
2021/01/10 07:31:59;;;;;;;2.53;0.83;;;-0.20;87.90;;;;;;5054724;28;20336;-86
2021/01/10 07:34:26;;;;;;;0.00;0.00;;;-0.20;87.90;;;;;;5026293;28;20320;-88
2021/01/10 07:36:54;;;;;;;0.87;0.50;;;-0.20;88.00;;;;;;5039447;28;20027;-91
2021/01/10 07:39:22;;;;;;;1.30;0.43;;;-0.20;88.00;;;;;;5039256;28;20280;-89
2021/01/10 07:41:49;;;;;;;0.77;0.77;;;-0.20;88.00;;;;;;5020338;28;20025;-90
2021/01/10 07:44:18;;;;;;;0.03;0.03;;;-0.20;88.00;;;;;;5041610;28;20435;-88
2021/01/10 07:46:59;;;;;;;0.63;0.30;;;-0.20;88.00;;;;;;5030148;28;20343;-89
2021/01/10 07:49:32;;;;;;;1.10;0.55;;;-0.20;88.00;;;;;;5040018;28;20041;-87
2021/01/10 07:51:59;;;;;;;0.60;0.40;;;-0.20;88.00;;;;;;5041371;28;20044;-88
2021/01/10 07:54:52;;;;;;;0.40;0.40;;;-0.20;88.00;;;;;;5033298;28;20053;-88
2021/01/10 07:57:25;;;;;;;0.87;0.40;;;-0.20;88.00;;;;;;5040259;28;20064;-89
2021/01/10 08:00:12;;;;;;;1.87;0.23;;;-0.30;88.00;;;;;;5048309;28;20040;-90
2021/01/10 08:03:08;;;;;;;0.87;0.53;;;-0.30;87.90;;;;;;5046145;28;20041;-92
2021/01/10 08:05:35;;;;;;;0.10;0.10;;;-0.30;88.00;;;;;;5060438;28;20319;-90
2021/01/10 08:08:05;;;;;;;3.30;1.07;;;-0.30;87.90;;;;;;5064918;28;20029;-91
2021/01/10 08:10:50;;;;;;;0.87;0.40;;;-0.30;88.00;;;;;;5054302;28;20025;-90
2021/01/10 08:13:29;;;;;;;0.40;0.40;;;-0.30;87.90;;;;;;5048571;28;20036;-90
2021/01/10 08:16:06;;;;;;;0.00;0.00;;;-0.30;87.90;;;;;;5072175;28;20031;-89
2021/01/10 08:18:37;;;;;;;0.00;0.00;;;-0.30;87.90;;;;;;5031265;28;20435;-89
2021/01/10 08:21:06;;;;;;;3.33;0.55;;;-0.30;87.90;;;;;;5013882;28;20439;-90
2021/01/10 08:23:32;;;;;;;0.27;0.17;;;-0.30;87.80;;;;;;5055478;28;20036;-87
2021/01/10 08:26:17;;;;;;;1.67;1.27;;;-0.20;87.90;;;;;;5073422;28;20404;-88
2021/01/10 08:28:50;;;;;;;0.20;0.10;;;-0.20;87.80;;;;;;5055416;28;20028;-88
2021/01/10 08:31:23;;;;;;;0.10;0.10;;;-0.20;87.80;;;;;;5052780;28;20033;-90
2021/01/10 08:34:09;;;;;;;1.17;0.77;;;-0.20;87.80;;;;;;5029740;28;20114;-89
2021/01/10 08:36:36;;;;;;;0.57;0.47;;;-0.20;87.70;;;;;;5038571;28;20056;-88
2021/01/10 08:39:09;;;;;;;0.40;0.03;;;-0.10;87.60;;;;;;5039699;28;20048;-88
2021/01/10 08:41:41;;;;;;;0.23;0.23;;;-0.10;87.60;;;;;;5036935;28;20040;-90
2021/01/10 08:44:14;;;;;;;0.27;0.27;;;-0.10;87.40;;;;;;5015242;28;20045;-89
2021/01/10 08:46:44;;;;;;;0.00;0.00;;;0.00;87.40;;;;;;5038152;28;20040;-87
2021/01/10 08:49:18;;;;;;;0.10;0.10;;;0.00;87.30;;;;;;5039572;28;20033;-88
2021/01/10 08:51:44;;;;;;;0.80;0.80;;;0.10;87.30;;;;;;5040488;28;20311;-92
2021/01/10 08:54:15;;;;;;;0.83;0.83;;;0.10;87.20;;;;;;5056584;28;20035;-88
2021/01/10 08:56:42;;;;;;;0.85;0.47;;;0.10;87.10;;;;;;5031278;28;20431;-91
2021/01/10 08:59:09;;;;;;;0.00;0.00;;;0.20;87.00;;;;;;5005159;28;20025;-90
2021/01/10 09:01:35;;;;;;;0.00;0.00;;;0.20;86.90;;;;;;5053092;28;20466;-88
2021/01/10 09:04:12;;;;;;;2.30;0.50;;;0.30;86.90;;;;;;5009246;28;20451;-90
2021/01/10 09:07:17;;;;;;;0.00;0.00;;;0.30;86.70;;;;;;5004139;28;20028;-89
2021/01/10 09:10:15;;;;;;;0.00;0.00;;;0.40;86.60;;;;;;4934011;29;20431;-91
2021/01/10 09:12:47;;;;;;;1.70;1.03;;;0.50;86.50;;;;;;4934074;28;21116;-92
2021/01/10 09:15:19;;;;;;;0.00;0.00;;;0.60;86.50;;;;;;5016654;28;20041;-92
2021/01/10 09:17:50;;;;;;;0.40;0.40;;;0.60;86.30;;;;;;5042632;28;20037;-93
2021/01/10 09:23:15;;;;;;;0.10;0.10;;;0.80;86.10;;;;;;5027005;28;20060;-91
2021/01/10 09:25:45;;;;;;;0.00;0.00;;;0.90;86.00;;;;;;5021235;28;20048;-90
2021/01/10 09:28:15;;;;;;;0.00;0.00;;;0.90;85.80;;;;;;5008246;28;20671;-92
2021/01/10 09:30:50;;;;;;;0.00;0.00;;;1.00;85.80;;;;;;5037191;28;20033;-92
2021/01/10 09:33:21;;;;;;;0.10;0.00;;;1.10;85.70;;;;;;5006256;28;20037;-92
2021/01/10 09:35:47;;;;;;;5.97;0.23;;;1.10;85.50;;;;;;5042585;28;20033;-92
2021/01/10 09:38:16;;;;;;;0.27;0.27;;;1.10;85.50;;;;;;5036918;28;20036;-92
2021/01/10 09:41:16;;;;;;;1.27;0.90;;;1.20;85.40;;;;;;5043222;28;20025;-92
2021/01/10 09:43:49;;;;;;;0.00;0.00;;;1.20;85.30;;;;;;4990531;28;20042;-91
2021/01/10 09:46:31;;;;;;;0.00;0.00;;;1.40;85.30;;;;;;4977439;28;20046;-91
2021/01/10 09:48:59;;;;;;;0.03;0.03;;;1.40;85.10;;;;;;4995485;28;20045;-91
2021/01/10 09:51:38;;;;;;;7.43;0.43;;;1.50;85.00;;;;;;4974836;28;20045;-91
2021/01/10 09:54:15;;;;;;;0.00;0.00;;;1.50;84.90;;;;;;4971406;28;20057;-92
2021/01/10 09:56:43;;;;;;;1.63;0.33;;;1.60;84.80;;;;;;4988525;28;20340;-91
2021/01/10 09:59:39;;;;;;;0.17;0.00;;;1.70;84.80;;;;;;4981368;28;20042;-91
2021/01/10 10:02:25;;;;;;;0.23;0.07;;;1.80;84.60;;;;;;4987731;28;20467;-89
2021/01/10 10:04:53;;;;;;;0.37;0.30;;;1.90;84.50;;;;;;4981815;28;20038;-91
2021/01/10 10:07:41;;;;;;;16.73;0.83;;;1.90;84.80;;;;;;4975452;28;20038;-90
2021/01/10 10:10:22;;;;;;;0.00;0.00;;;2.10;84.00;;;;;;4996071;28;20089;-91
2021/01/10 10:12:53;;;;;;;0.10;0.10;;;2.30;83.70;;;;;;4992592;28;20049;-92
2021/01/10 10:15:22;;;;;;;0.10;0.08;;;2.40;83.10;;;;;;4984303;28;20045;-93
2021/01/10 10:17:49;;;;;;;1.03;0.70;;;2.50;82.90;;;;;;4977634;28;20452;-92
2021/01/10 10:20:15;;;;;;;0.10;0.10;;;2.60;82.80;;;;;;4995218;28;20033;-92
2021/01/10 10:22:58;;;;;;;0.00;0.00;;;2.70;82.70;;;;;;5011860;28;20063;-92
2021/01/10 10:25:25;;;;;;;0.13;0.10;;;2.80;82.40;;;;;;5037369;28;20335;-90
2021/01/10 10:28:04;;;;;;;0.40;0.40;;;2.90;82.30;;;;;;5016614;28;20063;-92
2021/01/10 10:30:31;;;;;;;0.00;0.00;;;3.00;82.10;;;;;;5019010;28;20029;-91
2021/01/10 10:32:58;;;;;;;0.37;0.37;;;3.00;82.00;;;;;;5036271;28;20025;-89
2021/01/10 10:35:24;;;;;;;0.00;0.00;;;3.00;81.90;;;;;;5036382;28;20045;-91
2021/01/10 10:37:51;;;;;;;0.00;0.00;;;3.00;81.90;;;;;;5049217;28;20048;-91
2021/01/10 10:40:18;;;;;;;0.10;0.10;;;3.10;82.00;;;;;;5020221;28;20033;-90
2021/01/10 10:43:07;;;;;;;0.30;0.10;;;3.20;81.80;;;;;;5033174;28;20029;-92
2021/01/10 10:45:36;;;;;;;0.10;0.10;;;3.40;81.70;;;;;;5014866;28;20441;-92
2021/01/10 10:48:03;;;;;;;0.00;0.00;;;3.40;81.30;;;;;;5009448;28;20042;-90
2021/01/10 10:50:29;;;;;;;1.43;0.70;;;3.40;81.30;;;;;;4980110;28;20373;-92
2021/01/10 10:52:56;;;;;;;1.27;0.93;;;3.50;81.40;;;;;;4999410;28;20056;-90
2021/01/10 10:55:25;;;;;;;3.37;1.27;;;3.60;81.40;;;;;;5000391;28;20048;-90
2021/01/10 10:57:51;;;;;;;1.47;1.37;;;3.70;81.10;;;;;;5010697;28;20053;-90
2021/01/10 11:00:23;;;;;;;1.80;1.33;;;3.70;80.60;;;;;;4992342;28;20030;-93
2021/01/10 11:02:50;;;;;;;0.33;0.30;;;3.90;80.40;;;;;;5012173;28;20076;-93
2021/01/10 11:05:22;;;;;;;0.47;0.47;;;4.00;79.80;;;;;;5000248;28;20057;-90
2021/01/10 11:07:51;;;;;;;0.50;0.50;;;4.10;79.70;;;;;;4998093;28;20483;-92
2021/01/10 11:10:18;;;;;;;0.07;0.00;;;4.20;79.40;;;;;;5006220;28;20025;-92
2021/01/10 11:12:44;;;;;;;0.33;0.33;;;4.20;79.10;;;;;;5026886;28;20017;-91
2021/01/10 11:15:12;;;;;;;0.70;0.20;;;4.20;79.60;;;;;;5015070;28;20033;-92
2021/01/10 11:17:39;;;;;;;0.00;0.00;;;4.20;78.90;;;;;;5023126;28;20048;-92
2021/01/10 11:20:06;;;;;;;0.57;0.20;;;4.30;79.00;;;;;;5044072;28;20048;-93
2021/01/10 11:22:37;;;;;;;0.77;0.30;;;4.30;79.00;;;;;;5024526;28;20048;-94
2021/01/10 11:25:09;;;;;;;0.40;0.38;;;4.40;78.90;;;;;;5026171;28;20033;-94
2021/01/10 11:27:41;;;;;;;0.23;0.10;;;4.50;78.70;;;;;;5009214;28;20419;-92
2021/01/10 11:30:11;;;;;;;0.00;0.00;;;4.60;78.60;;;;;;5021817;28;20320;-93
2021/01/10 11:32:37;;;;;;;0.03;0.03;;;4.70;78.30;;;;;;4981742;28;20580;-91
2021/01/10 11:35:04;;;;;;;0.00;0.00;;;4.80;77.70;;;;;;5006038;28;20029;-91
2021/01/10 11:37:31;;;;;;;0.00;0.00;;;4.80;77.70;;;;;;5012721;28;20331;-90
2021/01/10 11:39:57;;;;;;;0.50;0.47;;;4.90;77.60;;;;;;5017000;28;20458;-94
2021/01/10 11:42:24;;;;;;;0.53;0.40;;;4.90;77.70;;;;;;5017812;28;20032;-94
2021/01/10 11:45:05;;;;;;;0.10;0.00;;;5.00;77.60;;;;;;5035887;23;20048;-93
2021/01/10 11:47:31;;;;;;;0.10;0.10;;;5.20;77.50;;;;;;5016049;28;20041;-92
2021/01/10 11:49:58;;;;;;;0.10;0.00;;;5.40;76.90;;;;;;5023648;28;20029;-94
2021/01/10 11:52:24;;;;;;;0.40;0.40;;;5.50;76.60;;;;;;5021740;28;20348;-92
2021/01/10 11:55:01;;;;;;;6.73;1.13;;;5.50;76.10;;;;;;5017863;28;20037;-93
2021/01/10 11:57:33;;;;;;;0.20;0.20;;;5.60;76.20;;;;;;5006046;28;20049;-93
2021/01/10 11:59:59;;;;;;;6.93;1.03;;;5.70;75.50;;;;;;5020595;28;20042;-94
2021/01/10 12:06:06;;;;;;;0.00;0.00;;;5.70;75.30;;;;;;5107384;22;20056;-93
2021/01/10 12:37:27;;;;;;;;;;;6.10;73.70;;;;;;5781106;22;11644940;-91
2021/01/10 12:39:54;;;;;;;0.00;0.00;;;6.10;73.40;;;;;;6201038;23;19907;-91
2021/01/10 12:42:22;;;;;;;0.10;0.00;;;6.10;73.40;;;;;;6199516;23;20007;-92
2021/01/10 12:44:52;;;;;;;0.00;0.00;;;6.20;73.30;;;;;;6224841;23;20003;-90
2021/01/10 12:47:18;;;;;;;0.00;0.00;;;6.30;73.00;;;;;;6138694;23;20262;-91
2021/01/10 12:49:45;;;;;;;0.27;0.27;;;6.40;72.80;;;;;;6161399;23;20377;-89
2021/01/10 12:52:11;;;;;;;0.00;0.00;;;6.40;72.60;;;;;;6135435;23;20277;-90
2021/01/10 12:54:38;;;;;;;0.00;0.00;;;6.50;72.80;;;;;;6159853;23;20248;-89
2021/01/10 12:57:04;;;;;;;0.20;0.10;;;6.50;72.40;;;;;;6135202;23;20005;-89
2021/01/10 12:59:31;;;;;;;0.40;0.33;;;6.50;72.40;;;;;;6135974;23;20052;-89
2021/01/10 13:02:25;;;;;;;2.03;0.93;;;6.60;72.60;;;;;;6134752;23;20021;-92
2021/01/10 13:04:54;;;;;;;0.00;0.00;;;6.70;72.30;;;;;;6137152;23;20389;-92
2021/01/10 13:07:20;;;;;;;0.10;0.03;;;6.70;72.20;;;;;;6158789;23;20006;-90
2021/01/10 13:09:47;;;;;;;0.30;0.10;;;6.70;72.10;;;;;;6135752;23;20012;-92
2021/01/10 13:12:19;;;;;;;0.20;0.13;;;6.70;72.40;;;;;;6160651;23;20002;-91
2021/01/10 13:14:51;;;;;;;0.00;0.00;;;6.80;72.20;;;;;;6113691;23;20009;-90
2021/01/10 13:17:30;;;;;;;0.00;0.00;;;6.70;72.00;;;;;;6146101;23;20012;-90
2021/01/10 13:20:01;;;;;;;0.10;0.07;;;6.80;71.70;;;;;;6131862;23;20013;-92
2021/01/10 13:22:28;;;;;;;0.67;0.13;;;6.70;71.80;;;;;;6129776;23;20014;-90
2021/01/10 13:25:12;;;;;;;0.57;0.30;;;6.60;71.50;;;;;;6153255;23;20006;-91
2021/01/10 13:27:47;;;;;;;0.00;0.00;;;6.50;71.50;;;;;;6132059;23;20009;-90
2021/01/10 13:30:22;;;;;;;0.00;0.00;;;6.50;71.40;;;;;;6116796;23;20001;-93
2021/01/10 13:33:24;;;;;;;0.13;0.07;;;6.60;71.40;;;;;;6176511;23;20391;-92
2021/01/10 13:36:18;;;;;;;0.03;0.00;;;6.50;71.20;;;;;;6132896;23;20001;-90
2021/01/10 13:38:49;;;;;;;0.07;0.07;;;6.50;71.50;;;;;;6129356;23;20025;-91
2021/01/10 13:44:45;;;;;;;0.10;0.10;;;6.50;70.80;;;;;;6130171;23;20017;-91
2021/01/10 13:47:11;;;;;;;0.20;0.13;;;6.50;70.90;;;;;;6114280;23;20017;-88
2021/01/10 13:49:38;;;;;;;0.00;0.00;;;6.50;71.10;;;;;;6128658;23;20016;-91
2021/01/10 13:52:04;;;;;;;1.80;0.17;;;6.50;71.10;;;;;;6153534;23;20012;-92
2021/01/10 13:54:31;;;;;;;0.53;0.37;;;6.50;70.90;;;;;;6129294;23;20258;-90
2021/01/10 13:56:58;;;;;;;0.10;0.07;;;6.40;70.90;;;;;;6153450;23;20376;-90